sensor_id;sensor_type;location;lat;lon;timestamp;pressure;altitude;pressure_sealevel;temperature;humidity
56142;BME280;42018;48.588;10.836;2023-06-14T00:01:10;96294.03;;;16.97;43.40
56142;BME280;42018;48.588;10.836;2023-06-14T00:03:58;96297.78;;;16.96;43.33
56142;BME280;42018;48.588;10.836;2023-06-14T00:06:44;96301.41;;;17.09;43.24
56142;BME280;42018;48.588;10.836;2023-06-14T00:09:33;96296.72;;;16.97;43.96
56142;BME280;42018;48.588;10.836;2023-06-14T00:12:19;96297.81;;;16.88;44.17
56142;BME280;42018;48.588;10.836;2023-06-14T00:15:05;96302.38;;;16.79;44.68
56142;BME280;42018;48.588;10.836;2023-06-14T00:17:50;96301.13;;;16.85;44.45
56142;BME280;42018;48.588;10.836;2023-06-14T00:20:36;96292.94;;;16.90;44.46
56142;BME280;42018;48.588;10.836;2023-06-14T00:23:22;96299.09;;;16.90;44.35
56142;BME280;42018;48.588;10.836;2023-06-14T00:26:07;96288.34;;;16.73;44.65
56142;BME280;42018;48.588;10.836;2023-06-14T00:28:53;96293.56;;;16.78;44.50
56142;BME280;42018;48.588;10.836;2023-06-14T00:31:39;96295.44;;;16.60;44.53
56142;BME280;42018;48.588;10.836;2023-06-14T00:34:25;96288.34;;;16.56;44.87
56142;BME280;42018;48.588;10.836;2023-06-14T00:37:10;96293.84;;;16.50;44.90
56142;BME280;42018;48.588;10.836;2023-06-14T00:39:55;96295.13;;;16.44;45.08
56142;BME280;42018;48.588;10.836;2023-06-14T00:42:41;96296.84;;;16.40;45.29
56142;BME280;42018;48.588;10.836;2023-06-14T00:45:26;96299.50;;;16.32;45.53
56142;BME280;42018;48.588;10.836;2023-06-14T00:48:13;96289.91;;;16.31;45.41
56142;BME280;42018;48.588;10.836;2023-06-14T00:50:59;96293.53;;;16.26;45.48
56142;BME280;42018;48.588;10.836;2023-06-14T00:53:47;96291.31;;;16.28;45.50
56142;BME280;42018;48.588;10.836;2023-06-14T00:56:35;96292.66;;;15.99;46.36
56142;BME280;42018;48.588;10.836;2023-06-14T00:59:20;96295.38;;;16.08;46.33
56142;BME280;42018;48.588;10.836;2023-06-14T01:02:05;96290.97;;;16.12;46.49
56142;BME280;42018;48.588;10.836;2023-06-14T01:04:51;96293.16;;;16.10;46.45
56142;BME280;42018;48.588;10.836;2023-06-14T01:08:02;96292.06;;;16.02;46.21
56142;BME280;42018;48.588;10.836;2023-06-14T01:10:56;96297.91;;;16.13;46.15
56142;BME280;42018;48.588;10.836;2023-06-14T01:13:44;96289.88;;;16.13;46.01
56142;BME280;42018;48.588;10.836;2023-06-14T01:16:31;96292.06;;;16.11;46.36
56142;BME280;42018;48.588;10.836;2023-06-14T01:19:17;96293.63;;;16.03;46.31
56142;BME280;42018;48.588;10.836;2023-06-14T01:22:03;96299.09;;;15.90;46.66
56142;BME280;42018;48.588;10.836;2023-06-14T01:24:48;96299.50;;;15.74;47.30
56142;BME280;42018;48.588;10.836;2023-06-14T01:27:34;96294.81;;;15.49;47.84
56142;BME280;42018;48.588;10.836;2023-06-14T01:30:20;96289.16;;;15.50;48.01
56142;BME280;42018;48.588;10.836;2023-06-14T01:33:06;96288.81;;;15.43;47.81
56142;BME280;42018;48.588;10.836;2023-06-14T01:35:52;96287.06;;;15.30;47.99
56142;BME280;42018;48.588;10.836;2023-06-14T01:38:38;96292.28;;;15.13;48.20
56142;BME280;42018;48.588;10.836;2023-06-14T01:41:25;96290.34;;;15.04;48.26
56142;BME280;42018;48.588;10.836;2023-06-14T01:44:12;96291.78;;;15.11;48.45
56142;BME280;42018;48.588;10.836;2023-06-14T01:46:58;96288.03;;;15.12;48.34
56142;BME280;42018;48.588;10.836;2023-06-14T01:49:46;96286.88;;;15.26;47.83
56142;BME280;42018;48.588;10.836;2023-06-14T01:52:31;96285.34;;;15.34;47.53
56142;BME280;42018;48.588;10.836;2023-06-14T01:55:16;96282.00;;;15.28;47.55
56142;BME280;42018;48.588;10.836;2023-06-14T01:58:03;96287.84;;;15.30;47.61
56142;BME280;42018;48.588;10.836;2023-06-14T02:00:49;96290.75;;;15.51;47.19
56142;BME280;42018;48.588;10.836;2023-06-14T02:03:36;96283.88;;;15.59;46.96
56142;BME280;42018;48.588;10.836;2023-06-14T02:06:24;96287.97;;;15.65;46.40
56142;BME280;42018;48.588;10.836;2023-06-14T02:09:09;96286.84;;;15.57;46.27
56142;BME280;42018;48.588;10.836;2023-06-14T02:11:54;96291.47;;;15.66;46.41
56142;BME280;42018;48.588;10.836;2023-06-14T02:14:40;96287.09;;;15.70;46.58
56142;BME280;42018;48.588;10.836;2023-06-14T02:17:25;96279.31;;;15.60;46.79
56142;BME280;42018;48.588;10.836;2023-06-14T02:20:11;96281.84;;;15.65;46.71
56142;BME280;42018;48.588;10.836;2023-06-14T02:22:57;96281.13;;;15.73;46.62
56142;BME280;42018;48.588;10.836;2023-06-14T02:25:42;96281.44;;;15.71;46.14
56142;BME280;42018;48.588;10.836;2023-06-14T02:28:29;96281.22;;;15.59;46.52
56142;BME280;42018;48.588;10.836;2023-06-14T02:31:15;96282.88;;;15.46;46.81
56142;BME280;42018;48.588;10.836;2023-06-14T02:34:01;96288.91;;;15.29;47.19
56142;BME280;42018;48.588;10.836;2023-06-14T02:36:47;96295.66;;;15.04;47.47
56142;BME280;42018;48.588;10.836;2023-06-14T02:39:33;96301.19;;;14.85;47.90
56142;BME280;42018;48.588;10.836;2023-06-14T02:42:18;96304.22;;;14.70;48.46
56142;BME280;42018;48.588;10.836;2023-06-14T02:45:04;96300.00;;;14.69;48.37
56142;BME280;42018;48.588;10.836;2023-06-14T02:47:49;96299.88;;;14.74;48.66
56142;BME280;42018;48.588;10.836;2023-06-14T02:50:35;96304.28;;;14.79;48.42
56142;BME280;42018;48.588;10.836;2023-06-14T02:53:20;96306.13;;;14.70;48.91
56142;BME280;42018;48.588;10.836;2023-06-14T02:56:06;96304.00;;;14.80;48.55
56142;BME280;42018;48.588;10.836;2023-06-14T02:58:51;96305.38;;;14.78;48.56
56142;BME280;42018;48.588;10.836;2023-06-14T03:01:38;96300.97;;;14.73;48.44
56142;BME280;42018;48.588;10.836;2023-06-14T03:04:24;96292.47;;;14.71;48.96
56142;BME280;42018;48.588;10.836;2023-06-14T03:07:10;96292.84;;;14.78;48.61
56142;BME280;42018;48.588;10.836;2023-06-14T03:09:57;96289.75;;;14.85;48.58
56142;BME280;42018;48.588;10.836;2023-06-14T03:12:42;96295.03;;;14.76;48.80
56142;BME280;42018;48.588;10.836;2023-06-14T03:15:28;96292.09;;;14.87;48.92
56142;BME280;42018;48.588;10.836;2023-06-14T03:18:14;96288.53;;;14.91;48.48
56142;BME280;42018;48.588;10.836;2023-06-14T03:21:00;96298.78;;;14.98;48.31
56142;BME280;42018;48.588;10.836;2023-06-14T03:23:45;96290.50;;;15.08;48.17
56142;BME280;42018;48.588;10.836;2023-06-14T03:26:31;96299.91;;;14.83;49.00
56142;BME280;42018;48.588;10.836;2023-06-14T03:29:19;96301.69;;;14.88;48.90
56142;BME280;42018;48.588;10.836;2023-06-14T03:32:04;96300.22;;;15.04;48.31
56142;BME280;42018;48.588;10.836;2023-06-14T03:34:50;96305.31;;;15.14;47.66
56142;BME280;42018;48.588;10.836;2023-06-14T03:37:35;96313.88;;;15.02;47.90
56142;BME280;42018;48.588;10.836;2023-06-14T03:40:21;96317.34;;;14.80;48.52
56142;BME280;42018;48.588;10.836;2023-06-14T03:43:06;96322.03;;;14.61;49.00
56142;BME280;42018;48.588;10.836;2023-06-14T03:45:52;96325.25;;;14.72;49.03
56142;BME280;42018;48.588;10.836;2023-06-14T03:48:37;96325.84;;;14.69;48.93
56142;BME280;42018;48.588;10.836;2023-06-14T03:51:23;96328.88;;;14.76;49.19
56142;BME280;42018;48.588;10.836;2023-06-14T03:54:10;96338.06;;;14.83;48.94
56142;BME280;42018;48.588;10.836;2023-06-14T03:56:55;96339.03;;;14.88;48.47
56142;BME280;42018;48.588;10.836;2023-06-14T03:59:41;96339.03;;;14.88;48.29
56142;BME280;42018;48.588;10.836;2023-06-14T04:02:27;96337.81;;;14.94;48.21
56142;BME280;42018;48.588;10.836;2023-06-14T04:05:14;96336.47;;;14.82;48.25
56142;BME280;42018;48.588;10.836;2023-06-14T04:08:00;96345.56;;;14.81;48.50
56142;BME280;42018;48.588;10.836;2023-06-14T04:10:46;96350.72;;;15.00;47.88
56142;BME280;42018;48.588;10.836;2023-06-14T04:13:31;96353.75;;;15.07;47.72
56142;BME280;42018;48.588;10.836;2023-06-14T04:16:17;96350.25;;;14.98;49.00
56142;BME280;42018;48.588;10.836;2023-06-14T04:19:02;96353.84;;;15.16;49.25
56142;BME280;42018;48.588;10.836;2023-06-14T04:21:48;96358.31;;;15.29;49.35
56142;BME280;42018;48.588;10.836;2023-06-14T04:24:33;96355.38;;;15.40;49.04
56142;BME280;42018;48.588;10.836;2023-06-14T04:27:19;96361.44;;;15.54;49.05
56142;BME280;42018;48.588;10.836;2023-06-14T04:30:07;96362.56;;;15.62;49.09
56142;BME280;42018;48.588;10.836;2023-06-14T04:32:52;96362.16;;;15.68;48.44
56142;BME280;42018;48.588;10.836;2023-06-14T04:35:41;96362.66;;;15.70;48.52
56142;BME280;42018;48.588;10.836;2023-06-14T04:38:27;96364.94;;;15.63;48.54
56142;BME280;42018;48.588;10.836;2023-06-14T04:41:13;96358.63;;;15.82;48.26
56142;BME280;42018;48.588;10.836;2023-06-14T04:44:00;96361.97;;;15.96;47.87
56142;BME280;42018;48.588;10.836;2023-06-14T04:46:46;96369.53;;;15.94;47.39
56142;BME280;42018;48.588;10.836;2023-06-14T04:49:32;96363.59;;;16.06;47.73
56142;BME280;42018;48.588;10.836;2023-06-14T04:52:19;96365.47;;;16.05;47.00
56142;BME280;42018;48.588;10.836;2023-06-14T04:55:06;96368.44;;;16.03;46.46
56142;BME280;42018;48.588;10.836;2023-06-14T04:57:52;96373.34;;;16.10;46.12
56142;BME280;42018;48.588;10.836;2023-06-14T05:00:40;96375.06;;;16.15;45.97
56142;BME280;42018;48.588;10.836;2023-06-14T05:03:27;96374.00;;;16.24;45.50
56142;BME280;42018;48.588;10.836;2023-06-14T05:06:15;96379.69;;;16.32;45.48
56142;BME280;42018;48.588;10.836;2023-06-14T05:09:02;96380.66;;;16.36;45.21
56142;BME280;42018;48.588;10.836;2023-06-14T05:11:47;96381.75;;;16.35;45.82
56142;BME280;42018;48.588;10.836;2023-06-14T05:14:33;96377.03;;;16.32;46.28
56142;BME280;42018;48.588;10.836;2023-06-14T05:17:19;96389.50;;;16.45;45.92
56142;BME280;42018;48.588;10.836;2023-06-14T05:20:06;96387.91;;;16.44;45.97
56142;BME280;42018;48.588;10.836;2023-06-14T05:22:53;96382.75;;;16.47;46.38
56142;BME280;42018;48.588;10.836;2023-06-14T05:25:38;96387.59;;;16.54;45.67
56142;BME280;42018;48.588;10.836;2023-06-14T05:28:24;96383.88;;;16.72;46.03
56142;BME280;42018;48.588;10.836;2023-06-14T05:31:09;96384.78;;;16.68;46.63
56142;BME280;42018;48.588;10.836;2023-06-14T05:33:55;96392.25;;;16.80;46.37
56142;BME280;42018;48.588;10.836;2023-06-14T05:36:40;96405.00;;;16.83;47.23
56142;BME280;42018;48.588;10.836;2023-06-14T05:39:26;96399.66;;;16.83;46.78
56142;BME280;42018;48.588;10.836;2023-06-14T05:42:11;96399.50;;;16.88;46.25
56142;BME280;42018;48.588;10.836;2023-06-14T05:44:56;96401.22;;;16.84;46.04
56142;BME280;42018;48.588;10.836;2023-06-14T05:47:42;96402.13;;;16.70;46.25
56142;BME280;42018;48.588;10.836;2023-06-14T05:50:27;96407.19;;;16.89;46.07
56142;BME280;42018;48.588;10.836;2023-06-14T05:53:12;96404.84;;;16.88;46.61
56142;BME280;42018;48.588;10.836;2023-06-14T05:55:58;96404.84;;;16.88;46.37
56142;BME280;42018;48.588;10.836;2023-06-14T05:58:44;96407.34;;;16.93;46.14
56142;BME280;42018;48.588;10.836;2023-06-14T06:01:29;96399.66;;;17.00;45.65
56142;BME280;42018;48.588;10.836;2023-06-14T06:04:15;96407.06;;;17.03;45.85
56142;BME280;42018;48.588;10.836;2023-06-14T06:07:01;96406.59;;;17.01;46.32
56142;BME280;42018;48.588;10.836;2023-06-14T06:09:46;96404.84;;;16.96;45.95
56142;BME280;42018;48.588;10.836;2023-06-14T06:12:32;96409.09;;;17.06;45.87
56142;BME280;42018;48.588;10.836;2023-06-14T06:15:18;96410.97;;;17.14;45.35
56142;BME280;42018;48.588;10.836;2023-06-14T06:18:03;96416.50;;;17.18;45.33
56142;BME280;42018;48.588;10.836;2023-06-14T06:20:49;96416.81;;;17.16;45.51
56142;BME280;42018;48.588;10.836;2023-06-14T06:23:34;96419.34;;;17.30;44.66
56142;BME280;42018;48.588;10.836;2023-06-14T06:26:22;96420.59;;;17.33;43.69
56142;BME280;42018;48.588;10.836;2023-06-14T06:29:07;96425.19;;;17.15;45.20
56142;BME280;42018;48.588;10.836;2023-06-14T06:31:53;96426.09;;;17.28;45.19
56142;BME280;42018;48.588;10.836;2023-06-14T06:34:38;96427.50;;;17.25;44.07
56142;BME280;42018;48.588;10.836;2023-06-14T06:37:23;96436.69;;;17.33;43.64
56142;BME280;42018;48.588;10.836;2023-06-14T06:40:09;96436.00;;;17.53;43.61
56142;BME280;42018;48.588;10.836;2023-06-14T06:42:55;96429.84;;;17.70;43.32
56142;BME280;42018;48.588;10.836;2023-06-14T06:45:40;96421.63;;;17.75;42.34
56142;BME280;42018;48.588;10.836;2023-06-14T06:48:26;96428.59;;;17.76;41.61
56142;BME280;42018;48.588;10.836;2023-06-14T06:51:11;96431.59;;;17.83;42.56
56142;BME280;42018;48.588;10.836;2023-06-14T06:53:58;96427.78;;;17.67;41.99
56142;BME280;42018;48.588;10.836;2023-06-14T06:56:43;96437.25;;;17.90;41.33
56142;BME280;42018;48.588;10.836;2023-06-14T06:59:28;96435.44;;;18.03;40.87
56142;BME280;42018;48.588;10.836;2023-06-14T07:02:14;96439.59;;;18.01;41.14
56142;BME280;42018;48.588;10.836;2023-06-14T07:05:00;96436.56;;;18.02;40.71
56142;BME280;42018;48.588;10.836;2023-06-14T07:07:45;96435.41;;;18.21;41.38
56142;BME280;42018;48.588;10.836;2023-06-14T07:10:30;96436.09;;;18.38;40.69
56142;BME280;42018;48.588;10.836;2023-06-14T07:13:16;96436.72;;;18.44;40.95
56142;BME280;42018;48.588;10.836;2023-06-14T07:16:01;96437.94;;;18.55;40.11
56142;BME280;42018;48.588;10.836;2023-06-14T07:18:47;96444.06;;;18.56;40.69
56142;BME280;42018;48.588;10.836;2023-06-14T07:21:32;96439.19;;;18.58;40.50
56142;BME280;42018;48.588;10.836;2023-06-14T07:24:19;96440.47;;;18.81;40.48
56142;BME280;42018;48.588;10.836;2023-06-14T07:27:06;96448.56;;;19.02;40.37
56142;BME280;42018;48.588;10.836;2023-06-14T07:29:52;96450.13;;;19.24;39.65
56142;BME280;42018;48.588;10.836;2023-06-14T07:32:38;96449.47;;;19.27;39.51
56142;BME280;42018;48.588;10.836;2023-06-14T07:35:23;96453.94;;;19.44;39.25
56142;BME280;42018;48.588;10.836;2023-06-14T07:38:08;96450.91;;;19.67;39.21
56142;BME280;42018;48.588;10.836;2023-06-14T07:40:54;96453.31;;;19.80;38.52
56142;BME280;42018;48.588;10.836;2023-06-14T07:43:39;96451.78;;;19.92;37.45
56142;BME280;42018;48.588;10.836;2023-06-14T07:46:25;96457.75;;;20.09;37.56
56142;BME280;42018;48.588;10.836;2023-06-14T07:49:10;96457.75;;;20.09;36.86
56142;BME280;42018;48.588;10.836;2023-06-14T07:51:55;96455.22;;;20.25;38.16
56142;BME280;42018;48.588;10.836;2023-06-14T07:54:41;96455.00;;;20.43;36.91
56142;BME280;42018;48.588;10.836;2023-06-14T07:57:26;96452.66;;;20.66;36.88
56142;BME280;42018;48.588;10.836;2023-06-14T08:00:12;96456.69;;;20.84;37.25
56142;BME280;42018;48.588;10.836;2023-06-14T08:03:00;96456.78;;;21.00;37.79
56142;BME280;42018;48.588;10.836;2023-06-14T08:05:45;96457.53;;;21.13;37.72
56142;BME280;42018;48.588;10.836;2023-06-14T08:08:31;96456.53;;;21.17;38.69
56142;BME280;42018;48.588;10.836;2023-06-14T08:11:16;96462.97;;;20.88;38.33
56142;BME280;42018;48.588;10.836;2023-06-14T08:14:01;96465.44;;;20.81;37.92
56142;BME280;42018;48.588;10.836;2023-06-14T08:16:47;96465.31;;;21.02;37.46
56142;BME280;42018;48.588;10.836;2023-06-14T08:19:32;96467.63;;;21.28;37.34
56142;BME280;42018;48.588;10.836;2023-06-14T08:22:18;96466.88;;;21.56;36.74
56142;BME280;42018;48.588;10.836;2023-06-14T08:25:03;96459.63;;;21.44;35.55
56142;BME280;42018;48.588;10.836;2023-06-14T08:27:49;96468.75;;;21.67;35.82
56142;BME280;42018;48.588;10.836;2023-06-14T08:30:35;96465.91;;;21.76;35.70
56142;BME280;42018;48.588;10.836;2023-06-14T08:33:20;96473.31;;;21.79;35.51
56142;BME280;42018;48.588;10.836;2023-06-14T08:36:06;96468.09;;;22.14;36.13
56142;BME280;42018;48.588;10.836;2023-06-14T08:38:51;96470.13;;;22.05;35.27
56142;BME280;42018;48.588;10.836;2023-06-14T08:41:37;96476.47;;;22.25;34.35
56142;BME280;42018;48.588;10.836;2023-06-14T08:44:22;96472.63;;;22.58;33.66
56142;BME280;42018;48.588;10.836;2023-06-14T08:47:08;96475.94;;;22.51;34.09
56142;BME280;42018;48.588;10.836;2023-06-14T08:49:55;96478.97;;;22.65;33.55
56142;BME280;42018;48.588;10.836;2023-06-14T08:52:45;96477.91;;;22.86;31.34
56142;BME280;42018;48.588;10.836;2023-06-14T08:55:34;96478.19;;;22.65;31.61
56142;BME280;42018;48.588;10.836;2023-06-14T08:58:23;96488.09;;;22.77;32.52
56142;BME280;42018;48.588;10.836;2023-06-14T09:01:09;96484.88;;;22.87;31.14
56142;BME280;42018;48.588;10.836;2023-06-14T09:03:59;96480.06;;;23.12;30.10
56142;BME280;42018;48.588;10.836;2023-06-14T09:06:45;96491.00;;;23.35;29.40
56142;BME280;42018;48.588;10.836;2023-06-14T09:09:30;96482.88;;;23.35;29.93
56142;BME280;42018;48.588;10.836;2023-06-14T09:12:16;96479.22;;;22.76;29.74
56142;BME280;42018;48.588;10.836;2023-06-14T09:15:03;96492.47;;;23.32;30.35
56142;BME280;42018;48.588;10.836;2023-06-14T09:17:51;96486.56;;;23.65;29.76
56142;BME280;42018;48.588;10.836;2023-06-14T09:20:37;96486.22;;;23.48;27.55
56142;BME280;42018;48.588;10.836;2023-06-14T09:23:22;96481.69;;;23.52;28.54
56142;BME280;42018;48.588;10.836;2023-06-14T09:28:53;96481.88;;;23.43;29.60
56142;BME280;42018;48.588;10.836;2023-06-14T09:31:40;96484.56;;;23.78;30.23
56142;BME280;42018;48.588;10.836;2023-06-14T09:34:25;96486.63;;;23.85;28.15
56142;BME280;42018;48.588;10.836;2023-06-14T09:37:11;96490.94;;;23.89;28.14
56142;BME280;42018;48.588;10.836;2023-06-14T09:39:57;96485.66;;;24.39;28.03
56142;BME280;42018;48.588;10.836;2023-06-14T09:42:42;96482.59;;;24.64;27.13
56142;BME280;42018;48.588;10.836;2023-06-14T09:45:30;96486.31;;;24.78;26.64
56142;BME280;42018;48.588;10.836;2023-06-14T09:48:16;96484.59;;;24.67;27.33
56142;BME280;42018;48.588;10.836;2023-06-14T09:51:03;96485.41;;;24.71;27.53
56142;BME280;42018;48.588;10.836;2023-06-14T09:53:52;96490.66;;;25.09;27.51
56142;BME280;42018;48.588;10.836;2023-06-14T09:56:41;96486.91;;;25.18;26.54
56142;BME280;42018;48.588;10.836;2023-06-14T09:59:29;96482.16;;;25.11;25.70
56142;BME280;42018;48.588;10.836;2023-06-14T10:02:27;96479.19;;;25.20;25.67
56142;BME280;42018;48.588;10.836;2023-06-14T10:05:15;96481.63;;;25.28;24.65
56142;BME280;42018;48.588;10.836;2023-06-14T10:08:13;96477.59;;;25.45;25.63
56142;BME280;42018;48.588;10.836;2023-06-14T10:11:00;96490.53;;;25.29;25.37
56142;BME280;42018;48.588;10.836;2023-06-14T10:13:46;96484.03;;;25.34;25.67
56142;BME280;42018;48.588;10.836;2023-06-14T10:17:03;96479.78;;;25.66;26.37
56142;BME280;42018;48.588;10.836;2023-06-14T10:22:58;96480.34;;;25.49;26.00
56142;BME280;42018;48.588;10.836;2023-06-14T10:25:50;96486.84;;;25.41;25.96
56142;BME280;42018;48.588;10.836;2023-06-14T10:28:39;96489.22;;;25.46;25.82
56142;BME280;42018;48.588;10.836;2023-06-14T10:31:43;96474.91;;;25.79;26.50
56142;BME280;42018;48.588;10.836;2023-06-14T10:34:30;96475.59;;;26.06;25.99
56142;BME280;42018;48.588;10.836;2023-06-14T10:37:16;96475.38;;;25.85;25.06
56142;BME280;42018;48.588;10.836;2023-06-14T10:40:02;96476.16;;;26.22;26.05
56142;BME280;42018;48.588;10.836;2023-06-14T10:42:51;96478.28;;;25.69;25.63
56142;BME280;42018;48.588;10.836;2023-06-14T10:49:01;96473.31;;;25.44;25.96
56142;BME280;42018;48.588;10.836;2023-06-14T10:51:51;96472.94;;;25.16;26.32
56142;BME280;42018;48.588;10.836;2023-06-14T10:54:38;96466.94;;;25.29;25.47
56142;BME280;42018;48.588;10.836;2023-06-14T10:57:23;96469.84;;;25.44;25.58
56142;BME280;42018;48.588;10.836;2023-06-14T11:00:10;96471.25;;;25.98;25.60
56142;BME280;42018;48.588;10.836;2023-06-14T11:05:59;96468.88;;;25.63;24.94
56142;BME280;42018;48.588;10.836;2023-06-14T11:12:01;96470.06;;;25.95;24.80
56142;BME280;42018;48.588;10.836;2023-06-14T11:14:47;96472.84;;;26.43;25.47
56142;BME280;42018;48.588;10.836;2023-06-14T11:17:33;96473.41;;;25.82;24.53
56142;BME280;42018;48.588;10.836;2023-06-14T11:20:18;96475.53;;;25.99;25.09
56142;BME280;42018;48.588;10.836;2023-06-14T11:23:04;96473.56;;;26.37;25.04
56142;BME280;42018;48.588;10.836;2023-06-14T11:25:52;96466.06;;;26.67;24.11
56142;BME280;42018;48.588;10.836;2023-06-14T11:28:39;96468.66;;;27.01;24.03
56142;BME280;42018;48.588;10.836;2023-06-14T11:31:26;96467.66;;;27.31;23.50
56142;BME280;42018;48.588;10.836;2023-06-14T11:34:12;96466.97;;;26.86;23.61
56142;BME280;42018;48.588;10.836;2023-06-14T11:36:57;96464.31;;;26.96;22.88
56142;BME280;42018;48.588;10.836;2023-06-14T11:39:44;96461.47;;;26.79;23.10
56142;BME280;42018;48.588;10.836;2023-06-14T11:42:30;96469.75;;;26.45;24.06
56142;BME280;42018;48.588;10.836;2023-06-14T11:45:15;96456.69;;;26.17;24.01
56142;BME280;42018;48.588;10.836;2023-06-14T11:48:01;96460.25;;;25.84;24.65
56142;BME280;42018;48.588;10.836;2023-06-14T11:50:49;96453.50;;;26.48;23.71
56142;BME280;42018;48.588;10.836;2023-06-14T11:53:35;96450.38;;;26.98;24.49
56142;BME280;42018;48.588;10.836;2023-06-14T11:56:21;96451.84;;;27.54;23.88
56142;BME280;42018;48.588;10.836;2023-06-14T11:59:06;96444.09;;;27.70;23.17
56142;BME280;42018;48.588;10.836;2023-06-14T12:01:53;96445.75;;;27.86;21.85
56142;BME280;42018;48.588;10.836;2023-06-14T12:04:46;96444.25;;;28.24;22.56
56142;BME280;42018;48.588;10.836;2023-06-14T12:07:32;96446.22;;;28.49;22.47
56142;BME280;42018;48.588;10.836;2023-06-14T12:10:17;96440.41;;;28.43;22.22
56142;BME280;42018;48.588;10.836;2023-06-14T12:13:03;96451.66;;;28.34;22.31
56142;BME280;42018;48.588;10.836;2023-06-14T12:15:54;96440.38;;;28.32;22.53
56142;BME280;42018;48.588;10.836;2023-06-14T12:18:41;96446.63;;;28.47;23.03
56142;BME280;42018;48.588;10.836;2023-06-14T12:21:28;96445.03;;;28.28;22.67
56142;BME280;42018;48.588;10.836;2023-06-14T12:24:14;96448.53;;;28.18;22.36
56142;BME280;42018;48.588;10.836;2023-06-14T12:27:00;96455.13;;;28.10;22.65
56142;BME280;42018;48.588;10.836;2023-06-14T12:29:58;96452.41;;;28.10;22.93
56142;BME280;42018;48.588;10.836;2023-06-14T12:32:44;96463.59;;;27.03;23.97
56142;BME280;42018;48.588;10.836;2023-06-14T12:35:30;96458.31;;;26.69;24.38
56142;BME280;42018;48.588;10.836;2023-06-14T12:38:15;96453.03;;;26.91;23.25
56142;BME280;42018;48.588;10.836;2023-06-14T12:41:01;96461.16;;;27.53;22.81
56142;BME280;42018;48.588;10.836;2023-06-14T12:43:47;96457.31;;;27.65;22.99
56142;BME280;42018;48.588;10.836;2023-06-14T12:46:32;96448.06;;;27.07;23.80
56142;BME280;42018;48.588;10.836;2023-06-14T12:49:18;96449.69;;;27.12;23.08
56142;BME280;42018;48.588;10.836;2023-06-14T12:52:04;96447.84;;;27.30;22.96
56142;BME280;42018;48.588;10.836;2023-06-14T12:54:50;96448.25;;;27.29;22.70
56142;BME280;42018;48.588;10.836;2023-06-14T12:57:35;96433.88;;;26.73;24.33
56142;BME280;42018;48.588;10.836;2023-06-14T13:00:22;96452.81;;;27.17;22.68
56142;BME280;42018;48.588;10.836;2023-06-14T13:03:07;96450.66;;;27.52;22.24
56142;BME280;42018;48.588;10.836;2023-06-14T13:05:53;96461.88;;;27.36;23.50
56142;BME280;42018;48.588;10.836;2023-06-14T13:08:39;96457.41;;;27.10;22.48
56142;BME280;42018;48.588;10.836;2023-06-14T13:11:24;96449.53;;;26.87;23.15
56142;BME280;42018;48.588;10.836;2023-06-14T13:14:09;96457.47;;;27.17;22.79
56142;BME280;42018;48.588;10.836;2023-06-14T13:16:55;96456.09;;;26.86;22.37
56142;BME280;42018;48.588;10.836;2023-06-14T13:19:40;96447.59;;;26.91;23.10
56142;BME280;42018;48.588;10.836;2023-06-14T13:22:27;96454.59;;;26.92;22.57
56142;BME280;42018;48.588;10.836;2023-06-14T13:25:13;96453.09;;;26.46;22.71
56142;BME280;42018;48.588;10.836;2023-06-14T13:27:58;96446.41;;;26.37;22.69
56142;BME280;42018;48.588;10.836;2023-06-14T13:30:44;96448.88;;;26.53;23.28
56142;BME280;42018;48.588;10.836;2023-06-14T13:33:31;96445.94;;;27.38;22.82
56142;BME280;42018;48.588;10.836;2023-06-14T13:36:17;96446.53;;;27.90;22.55
56142;BME280;42018;48.588;10.836;2023-06-14T13:39:02;96445.00;;;28.17;22.70
56142;BME280;42018;48.588;10.836;2023-06-14T13:41:47;96446.00;;;27.56;23.74
56142;BME280;42018;48.588;10.836;2023-06-14T13:44:33;96446.66;;;26.65;23.78
56142;BME280;42018;48.588;10.836;2023-06-14T13:47:18;96450.25;;;26.36;24.31
56142;BME280;42018;48.588;10.836;2023-06-14T13:50:04;96447.88;;;26.27;24.00
56142;BME280;42018;48.588;10.836;2023-06-14T13:52:50;96449.44;;;25.57;25.16
56142;BME280;42018;48.588;10.836;2023-06-14T13:55:35;96448.75;;;25.64;25.09
56142;BME280;42018;48.588;10.836;2023-06-14T13:58:20;96442.28;;;25.42;25.44
56142;BME280;42018;48.588;10.836;2023-06-14T14:01:06;96446.25;;;25.82;25.11
56142;BME280;42018;48.588;10.836;2023-06-14T14:03:52;96447.53;;;26.36;24.79
56142;BME280;42018;48.588;10.836;2023-06-14T14:06:37;96439.88;;;27.04;23.76
56142;BME280;42018;48.588;10.836;2023-06-14T14:09:23;96439.13;;;27.07;23.24
56142;BME280;42018;48.588;10.836;2023-06-14T14:12:08;96446.28;;;27.26;23.55
56142;BME280;42018;48.588;10.836;2023-06-14T14:14:54;96437.09;;;27.66;22.78
56142;BME280;42018;48.588;10.836;2023-06-14T14:17:40;96437.88;;;27.70;23.10
56142;BME280;42018;48.588;10.836;2023-06-14T14:20:29;96440.66;;;27.77;22.60
56142;BME280;42018;48.588;10.836;2023-06-14T14:23:14;96443.78;;;27.03;23.18
56142;BME280;42018;48.588;10.836;2023-06-14T14:26:00;96440.97;;;26.37;23.55
56142;BME280;42018;48.588;10.836;2023-06-14T14:28:48;96434.25;;;26.23;24.06
56142;BME280;42018;48.588;10.836;2023-06-14T14:31:34;96437.72;;;26.20;23.82
56142;BME280;42018;48.588;10.836;2023-06-14T14:34:20;96431.66;;;26.38;22.80
56142;BME280;42018;48.588;10.836;2023-06-14T14:37:05;96437.53;;;26.95;22.11
56142;BME280;42018;48.588;10.836;2023-06-14T14:39:50;96435.81;;;27.35;23.15
56142;BME280;42018;48.588;10.836;2023-06-14T14:42:36;96434.75;;;27.54;23.79
56142;BME280;42018;48.588;10.836;2023-06-14T14:45:22;96437.38;;;27.36;23.54